createdAt,value
2016-05-17T00:00:16.422Z,0
2016-05-17T00:01:02.359Z,0
2016-05-17T00:02:02.190Z,0
2016-05-17T00:03:16.242Z,0
2016-05-17T00:04:16.839Z,0
2016-05-17T00:05:01.901Z,0
2016-05-17T00:07:02.219Z,0
2016-05-17T00:09:02.583Z,0
2016-05-17T00:11:16.077Z,0
2016-05-17T00:12:02.624Z,0
2016-05-17T00:13:03.236Z,0
2016-05-17T00:14:02.238Z,0
2016-05-17T00:15:02.850Z,0
2016-05-17T00:16:02.618Z,0
2016-05-17T00:17:16.452Z,0
2016-05-17T00:18:16.438Z,0
2016-05-17T00:19:16.677Z,0
2016-05-17T00:20:03.224Z,0
2016-05-17T00:21:02.007Z,0
2016-05-17T00:22:30.950Z,0
2016-05-17T00:23:02.185Z,0
2016-05-17T00:25:02.612Z,0
2016-05-17T00:26:02.051Z,0
2016-05-17T00:27:03.210Z,0
2016-05-17T00:28:16.263Z,0
2016-05-17T00:29:02.435Z,0
2016-05-17T00:30:02.609Z,0
2016-05-17T00:32:16.649Z,0
2016-05-17T00:33:16.464Z,0
2016-05-17T00:34:02.417Z,0
2016-05-17T00:35:02.216Z,0
2016-05-17T00:36:16.472Z,0
2016-05-17T00:39:16.495Z,0
2016-05-17T00:40:02.449Z,0
2016-05-17T00:41:16.500Z,0
2016-05-17T00:42:02.204Z,0
2016-05-17T00:43:03.457Z,0
2016-05-17T00:44:02.194Z,0
2016-05-17T00:45:02.400Z,0
2016-05-17T00:46:02.231Z,0
2016-05-17T00:47:30.564Z,0
2016-05-17T00:48:16.739Z,0
2016-05-17T00:49:02.442Z,0
2016-05-17T00:50:02.226Z,0
2016-05-17T00:52:01.449Z,0
2016-05-17T00:53:02.671Z,0
2016-05-17T00:54:02.643Z,0
2016-05-17T00:55:02.473Z,0
2016-05-17T00:56:02.679Z,0
2016-05-17T00:57:02.479Z,0
2016-05-17T00:58:02.528Z,0
2016-05-17T00:59:02.296Z,0
2016-05-17T01:00:16.787Z,0
2016-05-17T01:01:02.302Z,0
2016-05-17T01:02:16.526Z,0
2016-05-17T01:03:02.401Z,0
2016-05-17T01:04:02.717Z,0
2016-05-17T01:05:16.550Z,0
2016-05-17T01:06:03.034Z,0
2016-05-17T01:07:02.255Z,0
2016-05-17T01:08:02.431Z,0
2016-05-17T01:10:02.451Z,0
2016-05-17T01:11:02.486Z,0
2016-05-17T01:12:02.675Z,0
2016-05-17T01:13:16.744Z,0
2016-05-17T01:14:01.791Z,0
2016-05-17T01:16:16.533Z,0
2016-05-17T01:17:02.486Z,0
2016-05-17T01:18:17.288Z,0
2016-05-17T01:19:17.400Z,0
2016-05-17T01:20:30.872Z,0
2016-05-17T01:21:16.296Z,0
2016-05-17T01:22:02.030Z,0
2016-05-17T01:23:02.861Z,0
2016-05-17T01:24:02.285Z,0
2016-05-17T01:25:02.351Z,0
2016-05-17T01:26:02.463Z,0
2016-05-17T01:27:02.466Z,0
2016-05-17T01:28:03.093Z,0
2016-05-17T01:29:02.487Z,0
2016-05-17T01:30:02.708Z,0
2016-05-17T01:31:02.351Z,0
2016-05-17T01:32:02.307Z,0
2016-05-17T01:33:16.548Z,0
2016-05-17T01:34:02.735Z,0
2016-05-17T01:35:02.331Z,0
2016-05-17T01:36:16.759Z,0
2016-05-17T01:37:30.433Z,0
2016-05-17T01:38:03.323Z,0
2016-05-17T01:39:16.813Z,0
2016-05-17T01:40:16.800Z,0
2016-05-17T01:41:02.269Z,0
2016-05-17T01:42:02.303Z,0
2016-05-17T01:43:02.306Z,0
2016-05-17T01:44:16.561Z,0
2016-05-17T01:45:02.483Z,0
2016-05-17T01:46:16.629Z,0
2016-05-17T01:47:02.722Z,0
2016-05-17T01:48:02.725Z,0
2016-05-17T01:49:16.794Z,0
2016-05-17T01:50:02.013Z,0
2016-05-17T01:51:15.908Z,0
2016-05-17T01:52:04.377Z,0
2016-05-17T01:53:02.739Z,0
2016-05-17T01:54:01.804Z,0
2016-05-17T01:55:17.012Z,0
2016-05-17T01:56:02.403Z,0
2016-05-17T01:57:02.718Z,0
2016-05-17T01:58:02.737Z,0
2016-05-17T01:59:02.537Z,0
2016-05-17T02:00:02.726Z,0
2016-05-17T02:01:02.979Z,0
2016-05-17T02:02:02.935Z,0
2016-05-17T02:03:16.409Z,0
2016-05-17T02:04:16.817Z,0
2016-05-17T02:05:02.927Z,0
2016-05-17T02:06:02.024Z,0
2016-05-17T02:07:02.870Z,0
2016-05-17T02:08:02.576Z,0
2016-05-17T02:09:02.110Z,0
2016-05-17T02:10:03.144Z,0
2016-05-17T02:11:16.259Z,0
2016-05-17T02:12:30.667Z,0
2016-05-17T02:13:16.623Z,0
2016-05-17T02:14:02.436Z,0
2016-05-17T02:15:16.394Z,0
2016-05-17T02:16:02.363Z,0
2016-05-17T02:17:16.400Z,0
2016-05-17T02:18:02.338Z,0
2016-05-17T02:19:02.965Z,0
2016-05-17T02:20:17.985Z,0
2016-05-17T02:21:02.532Z,0
2016-05-17T02:22:30.366Z,0
2016-05-17T02:23:02.819Z,0
2016-05-17T02:24:16.653Z,0
2016-05-17T02:25:02.388Z,0
2016-05-17T02:26:02.234Z,0
2016-05-17T02:27:02.580Z,0
2016-05-17T02:28:16.851Z,0
2016-05-17T02:29:02.413Z,0
2016-05-17T02:30:17.029Z,0
2016-05-17T02:31:03.044Z,0
2016-05-17T02:32:01.922Z,0
2016-05-17T02:33:16.881Z,4
2016-05-17T02:34:02.474Z,4
2016-05-17T02:35:02.633Z,4
2016-05-17T02:36:15.950Z,4
2016-05-17T02:37:17.063Z,0
2016-05-17T02:38:02.282Z,4
2016-05-17T02:40:02.615Z,4
2016-05-17T02:41:02.618Z,4
2016-05-17T02:42:16.639Z,4
2016-05-17T02:43:16.875Z,8
2016-05-17T02:47:16.684Z,12
2016-05-17T02:49:16.485Z,12
2016-05-17T02:50:02.594Z,12
2016-05-17T02:51:02.597Z,16
2016-05-17T02:52:01.773Z,16
2016-05-17T02:53:02.666Z,20
2016-05-17T02:54:03.450Z,20
2016-05-17T02:55:16.455Z,24
2016-05-17T02:56:16.489Z,24
2016-05-17T02:57:01.630Z,28
2016-05-17T02:58:17.526Z,32
2016-05-17T02:59:02.666Z,32
2016-05-17T03:00:02.294Z,36
2016-05-17T03:01:16.674Z,44
2016-05-17T03:02:02.471Z,48
2016-05-17T03:03:17.304Z,56
2016-05-17T03:04:02.445Z,64
2016-05-17T03:05:16.467Z,80
2016-05-17T03:06:16.922Z,92
2016-05-17T03:07:03.265Z,100
2016-05-17T03:08:02.800Z,112
2016-05-17T03:10:01.961Z,132
2016-05-17T03:11:02.433Z,132
2016-05-17T03:12:02.264Z,132
2016-05-17T03:13:02.829Z,136
2016-05-17T03:14:02.597Z,156
2016-05-17T03:15:03.006Z,180
2016-05-17T03:16:03.008Z,208
2016-05-17T03:17:02.231Z,228
2016-05-17T03:18:02.452Z,244
2016-05-17T03:19:16.708Z,252
2016-05-17T03:20:02.833Z,256
2016-05-17T03:21:16.915Z,268
2016-05-17T03:22:03.649Z,268
2016-05-17T03:24:02.249Z,268
2016-05-17T03:25:16.645Z,292
2016-05-17T03:26:03.316Z,312
2016-05-17T03:27:02.444Z,336
2016-05-17T03:29:17.093Z,384
2016-05-17T03:30:04.187Z,392
2016-05-17T03:31:02.784Z,384
2016-05-17T03:32:02.411Z,368
2016-05-17T03:33:30.746Z,388
2016-05-17T03:35:02.388Z,448
2016-05-17T03:36:16.893Z,484
2016-05-17T03:37:03.456Z,512
2016-05-17T03:40:02.465Z,540
2016-05-17T03:41:02.295Z,616
2016-05-17T03:42:02.298Z,700
2016-05-17T03:43:16.522Z,720
2016-05-17T03:45:02.634Z,612
2016-05-17T03:46:02.824Z,596
2016-05-17T03:47:02.592Z,632
2016-05-17T03:48:02.250Z,680
2016-05-17T03:49:16.678Z,820
2016-05-17T03:51:03.040Z,868
2016-05-17T03:52:16.921Z,888
2016-05-17T03:53:17.096Z,856
2016-05-17T03:55:02.457Z,756
2016-05-17T03:56:16.729Z,760
2016-05-17T03:57:16.528Z,796
2016-05-17T03:58:16.327Z,784
2016-05-17T03:59:16.377Z,756
2016-05-17T04:02:02.413Z,732
2016-05-17T04:03:02.698Z,804
2016-05-17T04:04:02.622Z,924
2016-05-17T04:06:02.332Z,1096
2016-05-17T04:07:16.524Z,1064
2016-05-17T04:08:02.493Z,1056
2016-05-17T04:10:16.359Z,1200
2016-05-17T04:11:02.437Z,1204
2016-05-17T04:12:02.378Z,1292
2016-05-17T04:13:02.147Z,1476
2016-05-17T04:14:16.355Z,1704
2016-05-17T04:15:02.636Z,1948
2016-05-17T04:16:02.311Z,2272
2016-05-17T04:17:02.798Z,2532
2016-05-17T04:18:01.972Z,2556
2016-05-17T04:19:02.631Z,2556
2016-05-17T04:20:02.633Z,2612
2016-05-17T04:21:30.828Z,2748
2016-05-17T04:22:02.968Z,2780
2016-05-17T04:23:16.927Z,2980
2016-05-17T04:24:02.661Z,3084
2016-05-17T04:26:02.307Z,3356
2016-05-17T04:28:16.721Z,3416
2016-05-17T04:29:16.974Z,3708
2016-05-17T04:30:16.976Z,4112
2016-05-17T04:31:02.507Z,4388
2016-05-17T04:32:17.372Z,4824
2016-05-17T04:33:02.669Z,5148
2016-05-17T04:34:02.453Z,5512
2016-05-17T04:35:02.674Z,5984
2016-05-17T04:36:02.708Z,6500
2016-05-17T04:37:02.196Z,6824
2016-05-17T04:38:16.560Z,6720
2016-05-17T04:39:03.138Z,6664
2016-05-17T04:40:16.550Z,6772
2016-05-17T04:41:02.347Z,6852
2016-05-17T04:43:02.680Z,6736
2016-05-17T04:45:02.483Z,7208
2016-05-17T04:46:02.923Z,7588
2016-05-17T04:47:02.332Z,7840
2016-05-17T04:49:16.855Z,7624
2016-05-17T04:50:02.683Z,7580
2016-05-17T04:51:04.186Z,7456
2016-05-17T04:52:02.766Z,7448
2016-05-17T04:53:03.083Z,7356
2016-05-17T04:54:02.695Z,7288
2016-05-17T04:55:02.916Z,7156
2016-05-17T04:56:02.513Z,6896
2016-05-17T04:57:16.611Z,6512
2016-05-17T04:58:16.786Z,6400
2016-05-17T04:59:16.835Z,6432
2016-05-17T05:00:02.944Z,6692
2016-05-17T05:01:02.369Z,7064
2016-05-17T05:02:02.544Z,7560
2016-05-17T05:04:02.971Z,8052
2016-05-17T05:05:16.648Z,8000
2016-05-17T05:06:02.554Z,7880
2016-05-17T05:07:02.979Z,7680
2016-05-17T05:08:17.015Z,7616
2016-05-17T05:09:31.525Z,7572
2016-05-17T05:10:17.148Z,7560
2016-05-17T05:11:03.085Z,7484
2016-05-17T05:12:03.053Z,7488
2016-05-17T05:13:02.723Z,7732
2016-05-17T05:14:02.566Z,8132
2016-05-17T05:15:02.754Z,8576
2016-05-17T05:16:03.210Z,8772
2016-05-17T05:17:03.010Z,8868
2016-05-17T05:18:03.090Z,8724
2016-05-17T05:19:02.874Z,8556
2016-05-17T05:20:03.528Z,8328
2016-05-17T05:21:02.926Z,8116
2016-05-17T05:22:02.325Z,7988
2016-05-17T05:23:03.192Z,7756
2016-05-17T05:24:02.606Z,7656
2016-05-17T05:25:03.113Z,7968
2016-05-17T05:26:03.336Z,8652
2016-05-17T05:27:02.591Z,9268
2016-05-17T05:28:02.955Z,9736
2016-05-17T05:29:17.401Z,9832
2016-05-17T05:30:18.107Z,10004
2016-05-17T05:31:03.154Z,9952
2016-05-17T05:32:17.099Z,9416
2016-05-17T05:33:02.786Z,9296
2016-05-17T05:34:17.855Z,8696
2016-05-17T05:35:03.167Z,8148
2016-05-17T05:36:17.237Z,7904
2016-05-17T05:37:16.943Z,7904
2016-05-17T05:38:03.349Z,7880
2016-05-17T05:39:03.227Z,7484
2016-05-17T05:40:03.590Z,6700
2016-05-17T05:41:03.217Z,6224
2016-05-17T05:42:03.032Z,5980
2016-05-17T05:43:03.801Z,5664
2016-05-17T05:45:02.915Z,4884
2016-05-17T05:46:03.637Z,4300
2016-05-17T05:47:03.905Z,4208
2016-05-17T05:48:03.704Z,4016
2016-05-17T05:49:02.552Z,4212
2016-05-17T05:51:17.575Z,4596
2016-05-17T05:52:03.622Z,4392
2016-05-17T05:53:03.609Z,4452
2016-05-17T05:54:03.471Z,4580
2016-05-17T05:55:03.302Z,4724
2016-05-17T05:56:03.242Z,4728
2016-05-17T05:57:02.729Z,4592
2016-05-17T05:58:02.404Z,4424
2016-05-17T05:59:17.628Z,4300
2016-05-17T06:00:31.975Z,4388
2016-05-17T06:01:17.820Z,4456
2016-05-17T06:03:03.620Z,4628
2016-05-17T06:04:03.264Z,4836
2016-05-17T06:05:03.297Z,4976
2016-05-17T06:06:03.285Z,5088
2016-05-17T06:07:17.162Z,5228
2016-05-17T06:08:16.961Z,4076
2016-05-17T06:09:03.293Z,3928
2016-05-17T06:10:03.264Z,4028
2016-05-17T06:11:02.766Z,4016
2016-05-17T06:12:04.144Z,4608
2016-05-17T06:13:18.649Z,4196
2016-05-17T06:14:32.027Z,3904
2016-05-17T06:15:03.637Z,4016
2016-05-17T06:16:03.108Z,4436
2016-05-17T06:18:03.223Z,3904
2016-05-17T06:19:04.679Z,3852
2016-05-17T06:20:03.900Z,4148
2016-05-17T06:21:04.826Z,4888
2016-05-17T06:22:04.234Z,4648
2016-05-17T06:23:17.173Z,4448
2016-05-17T06:24:17.864Z,4732
2016-05-17T06:25:31.245Z,4852
2016-05-17T06:27:02.998Z,4564
2016-05-17T06:28:03.360Z,5464
2016-05-17T06:29:02.830Z,5740
2016-05-17T06:30:03.631Z,4292
2016-05-17T06:31:03.180Z,3720
2016-05-17T06:32:02.823Z,4568
2016-05-17T06:34:31.488Z,5184
2016-05-17T06:35:03.363Z,5248
2016-05-17T06:36:03.006Z,4940
2016-05-17T06:37:03.603Z,3984
2016-05-17T06:38:17.449Z,3764
2016-05-17T06:39:17.264Z,3824
2016-05-17T06:40:16.954Z,4116
2016-05-17T06:41:17.316Z,4624
2016-05-17T06:42:03.210Z,3780
2016-05-17T06:43:03.760Z,3176
2016-05-17T06:44:03.574Z,2996
2016-05-17T06:45:17.499Z,4348
2016-05-17T06:46:03.408Z,4360
2016-05-17T06:47:16.285Z,4332
2016-05-17T06:48:03.038Z,4484
2016-05-17T06:49:17.243Z,4680
2016-05-17T06:50:03.809Z,4880
2016-05-17T06:51:03.062Z,4460
2016-05-17T06:52:17.112Z,4376
2016-05-17T06:53:08.598Z,4608
2016-05-17T06:55:03.401Z,5052
2016-05-17T06:56:18.090Z,5988
2016-05-17T06:57:03.218Z,6596
2016-05-17T06:58:03.408Z,6796
2016-05-17T06:59:03.381Z,8560
2016-05-17T07:00:03.180Z,6768
2016-05-17T07:02:03.638Z,5480
2016-05-17T07:03:17.484Z,4376
2016-05-17T07:04:03.456Z,3540
2016-05-17T07:05:03.802Z,3916
2016-05-17T07:06:03.477Z,3280
2016-05-17T07:07:17.949Z,4128
2016-05-17T07:09:04.047Z,6644
2016-05-17T07:10:03.878Z,6476
2016-05-17T07:12:03.274Z,7240
2016-05-17T07:14:03.155Z,7012
2016-05-17T07:16:03.238Z,9512
2016-05-17T07:17:03.147Z,12232
2016-05-17T07:18:03.291Z,14440
2016-05-17T07:20:03.937Z,15932
2016-05-17T07:21:17.345Z,16288
2016-05-17T07:22:03.348Z,16544
2016-05-17T07:23:03.898Z,17376
2016-05-17T07:24:03.025Z,17824
2016-05-17T07:25:17.544Z,17792
2016-05-17T07:26:03.484Z,17184
2016-05-17T07:27:03.284Z,14940
2016-05-17T07:28:17.396Z,16160
2016-05-17T07:29:17.414Z,16448
2016-05-17T07:30:19.057Z,18912
2016-05-17T07:31:17.591Z,21088
2016-05-17T07:32:02.859Z,21696
2016-05-17T07:34:03.522Z,22752
2016-05-17T07:36:03.761Z,23328
2016-05-17T07:37:18.108Z,23520
2016-05-17T07:38:04.063Z,23264
2016-05-17T07:40:03.225Z,22880
2016-05-17T07:42:03.371Z,21888
2016-05-17T07:43:03.405Z,21184
2016-05-17T07:44:04.688Z,20544
2016-05-17T07:45:03.457Z,20576
2016-05-17T07:46:03.865Z,21056
2016-05-17T07:47:18.057Z,21632
2016-05-17T07:49:31.986Z,21376
2016-05-17T07:50:05.518Z,22112
2016-05-17T07:51:03.426Z,23264
2016-05-17T07:52:03.835Z,23424
2016-05-17T07:53:04.401Z,24512
2016-05-17T07:54:04.590Z,25184
2016-05-17T07:56:18.689Z,23328
2016-05-17T07:57:03.505Z,24064
2016-05-17T07:58:17.976Z,23072
2016-05-17T07:59:17.682Z,20256
2016-05-17T08:00:32.031Z,18848
2016-05-17T08:01:03.500Z,19104
2016-05-17T08:02:18.831Z,15024
2016-05-17T08:03:05.475Z,14336
2016-05-17T08:04:21.761Z,12488
2016-05-17T08:06:03.763Z,16544
2016-05-17T08:07:04.017Z,14020
2016-05-17T08:08:03.769Z,9372
2016-05-17T08:09:17.818Z,7256
2016-05-17T08:10:17.603Z,6116
2016-05-17T08:11:18.792Z,6000
2016-05-17T08:12:04.186Z,6292
2016-05-17T08:13:03.564Z,6636
2016-05-17T08:14:17.675Z,5952
2016-05-17T08:15:19.210Z,5608
2016-05-17T08:16:18.680Z,5284
2016-05-17T08:17:05.824Z,4504
2016-05-17T08:18:18.780Z,5212
2016-05-17T08:19:04.438Z,5936
2016-05-17T08:20:04.316Z,5600
2016-05-17T08:21:18.366Z,5576
2016-05-17T08:22:17.462Z,5796
2016-05-17T08:23:03.529Z,5984
2016-05-17T08:24:05.937Z,6224
2016-05-17T08:26:03.926Z,6116
2016-05-17T08:27:17.960Z,6408
2016-05-17T08:30:27.596Z,7600
2016-05-17T08:31:27.099Z,7652
2016-05-17T08:32:29.586Z,7696
2016-05-17T08:33:42.183Z,8244
2016-05-17T08:34:42.654Z,9464
2016-05-17T08:36:09.720Z,11824
2016-05-17T08:36:41.706Z,12788
2016-05-17T08:37:43.115Z,14728
2016-05-17T08:38:42.259Z,16736
2016-05-17T08:39:28.199Z,18016
2016-05-17T08:40:26.780Z,19520
2016-05-17T08:41:27.642Z,20544
2016-05-17T08:42:28.503Z,20288
2016-05-17T08:43:28.178Z,19488
2016-05-17T08:44:28.102Z,18560
2016-05-17T08:45:28.277Z,17856
2016-05-17T08:46:27.343Z,16800
2016-05-17T08:47:28.455Z,14576
2016-05-17T08:48:28.066Z,12668
2016-05-17T08:49:27.632Z,11480
2016-05-17T08:50:28.884Z,11608
2016-05-17T08:51:41.684Z,12360
2016-05-17T08:52:27.749Z,12816
2016-05-17T08:53:28.440Z,13488
2016-05-17T08:54:28.036Z,13988
2016-05-17T08:55:27.413Z,14584
2016-05-17T08:58:41.937Z,15348
2016-05-17T08:59:27.424Z,15796
2016-05-17T09:00:41.740Z,16768
2016-05-17T09:01:41.914Z,17568
2016-05-17T09:02:42.292Z,17568
2016-05-17T09:03:27.856Z,17056
2016-05-17T09:04:41.516Z,17504
2016-05-17T09:05:26.800Z,19968
2016-05-17T09:06:27.349Z,22848
2016-05-17T09:07:27.805Z,22944
2016-05-17T09:08:27.855Z,19936
2016-05-17T09:09:27.389Z,15656
2016-05-17T09:12:27.506Z,5780
2016-05-17T09:14:27.387Z,6184
2016-05-17T09:15:27.499Z,5884
2016-05-17T09:16:27.736Z,5308
2016-05-17T09:17:27.629Z,4836
2016-05-17T09:18:27.757Z,4788
2016-05-17T09:19:27.524Z,5152
2016-05-17T09:20:27.559Z,5292
2016-05-17T09:21:27.577Z,5320
2016-05-17T09:22:27.565Z,5828
2016-05-17T09:24:27.788Z,7244
2016-05-17T09:25:27.416Z,10108
2016-05-17T09:26:27.576Z,13052
2016-05-17T09:27:41.859Z,13828
2016-05-17T09:28:27.799Z,14224
2016-05-17T09:29:27.459Z,14172
2016-05-17T09:30:28.304Z,12888
2016-05-17T09:31:41.870Z,13180
2016-05-17T09:32:27.826Z,13588
2016-05-17T09:33:27.657Z,13884
2016-05-17T09:34:41.909Z,13076
2016-05-17T09:35:28.209Z,12592
2016-05-17T09:36:41.806Z,12140
2016-05-17T09:37:27.526Z,12428
2016-05-17T09:40:28.097Z,15136
2016-05-17T09:41:27.725Z,16416
2016-05-17T09:43:42.292Z,19296
2016-05-17T09:44:27.374Z,20416
2016-05-17T09:45:27.688Z,21984
2016-05-17T09:46:27.550Z,23488
2016-05-17T09:47:27.382Z,24704
2016-05-17T09:49:27.699Z,26208
2016-05-17T09:50:29.140Z,26944
2016-05-17T09:51:42.689Z,26208
2016-05-17T09:52:28.677Z,25952
2016-05-17T09:53:28.180Z,26976
2016-05-17T09:54:27.759Z,28224
2016-05-17T09:55:41.825Z,30048
2016-05-17T09:56:28.516Z,30464
2016-05-17T09:57:27.893Z,31104
2016-05-17T09:58:27.802Z,31296
2016-05-17T09:59:27.992Z,31264
2016-05-17T10:00:28.026Z,31424
2016-05-17T10:01:28.357Z,31392
2016-05-17T10:02:27.968Z,32256
2016-05-17T10:04:27.849Z,41728
2016-05-17T10:05:28.680Z,34912
2016-05-17T10:06:28.761Z,32608
2016-05-17T10:08:27.873Z,33536
2016-05-17T10:09:28.253Z,34016
2016-05-17T10:10:28.475Z,33664
2016-05-17T10:11:27.740Z,33888
2016-05-17T10:12:27.977Z,34048
2016-05-17T10:13:28.811Z,32960
2016-05-17T10:14:42.751Z,36864
2016-05-17T10:15:28.379Z,36192
2016-05-17T10:16:28.147Z,35520
2016-05-17T10:17:27.741Z,35744
2016-05-17T10:18:28.559Z,36576
2016-05-17T10:19:27.919Z,32928
2016-05-17T10:20:28.171Z,33056
2016-05-17T10:21:28.489Z,31072
2016-05-17T10:22:29.038Z,32192
2016-05-17T10:23:28.288Z,30688
2016-05-17T10:24:27.885Z,28992
2016-05-17T10:25:27.887Z,24896
2016-05-17T10:26:56.987Z,16288
2016-05-17T10:27:28.252Z,16832
2016-05-17T10:28:31.039Z,21696
2016-05-17T10:29:42.120Z,25760
2016-05-17T10:30:28.229Z,24128
2016-05-17T10:31:28.610Z,18496
2016-05-17T10:32:27.641Z,15224
2016-05-17T10:33:42.802Z,13776
2016-05-17T10:34:28.634Z,12944
2016-05-17T10:35:43.182Z,12796
2016-05-17T10:36:42.716Z,11580
2016-05-17T10:37:28.669Z,10416
2016-05-17T10:38:28.157Z,9456
2016-05-17T10:39:28.362Z,10124
2016-05-17T10:40:28.584Z,10728
2016-05-17T10:41:28.415Z,12576
2016-05-17T10:42:28.762Z,14668
2016-05-17T10:43:29.564Z,14984
2016-05-17T10:44:29.879Z,14788
2016-05-17T10:45:28.051Z,15276
2016-05-17T10:46:29.994Z,17120
2016-05-17T10:47:28.244Z,19200
2016-05-17T10:49:28.280Z,19744
2016-05-17T10:50:27.595Z,20000
2016-05-17T10:51:29.414Z,21088
2016-05-17T10:52:29.885Z,23072
2016-05-17T10:53:28.713Z,25472
2016-05-17T10:54:28.513Z,26496
2016-05-17T10:55:43.236Z,26656
2016-05-17T10:56:28.424Z,27840
2016-05-17T10:57:29.364Z,29696
2016-05-17T10:58:29.226Z,30720
2016-05-17T10:59:29.166Z,31488
2016-05-17T11:00:28.544Z,33120
2016-05-17T11:01:42.877Z,32224
2016-05-17T11:02:28.377Z,30560
2016-05-17T11:03:28.443Z,26848
2016-05-17T11:04:28.554Z,24640
2016-05-17T11:06:28.154Z,32416
2016-05-17T11:07:28.828Z,29856
2016-05-17T11:08:28.472Z,30752
2016-05-17T11:09:28.584Z,32864
2016-05-17T11:11:29.245Z,34304
2016-05-17T11:12:30.766Z,38432
2016-05-17T11:13:29.266Z,38304
2016-05-17T11:14:32.428Z,35520
2016-05-17T11:15:29.725Z,30848
2016-05-17T11:16:45.949Z,29344
2016-05-17T11:17:30.374Z,28320
2016-05-17T11:18:28.702Z,28768
2016-05-17T11:19:43.536Z,28832
2016-05-17T11:20:42.836Z,28256
2016-05-17T11:21:29.539Z,26976
2016-05-17T11:22:57.230Z,24608
2016-05-17T11:23:29.012Z,24288
2016-05-17T11:24:29.406Z,23712
2016-05-17T11:25:28.814Z,23616
2016-05-17T11:26:44.930Z,26592
2016-05-17T11:27:57.369Z,25088
2016-05-17T11:28:28.463Z,25024
2016-05-17T11:29:28.310Z,25984
2016-05-17T11:30:28.484Z,26784
2016-05-17T11:31:29.862Z,29760
2016-05-17T11:32:28.568Z,31840
2016-05-17T11:33:29.696Z,31840
2016-05-17T11:35:28.232Z,30656
2016-05-17T11:36:43.784Z,30048
2016-05-17T11:37:57.098Z,32032
2016-05-17T11:39:29.227Z,32512
2016-05-17T11:40:28.776Z,32224
2016-05-17T11:41:29.342Z,29216
2016-05-17T11:42:28.751Z,24320
2016-05-17T11:43:30.378Z,22656
2016-05-17T11:44:30.821Z,23872
2016-05-17T11:45:29.055Z,26752
2016-05-17T11:46:30.495Z,28128
2016-05-17T11:47:28.514Z,28544
2016-05-17T11:48:29.939Z,26016
2016-05-17T11:49:29.066Z,26208
2016-05-17T11:50:29.288Z,27840
2016-05-17T11:52:28.636Z,23104
2016-05-17T11:53:30.827Z,19648
2016-05-17T11:54:30.017Z,16128
2016-05-17T11:55:43.179Z,11144
2016-05-17T11:56:28.929Z,8932
2016-05-17T11:57:28.932Z,9104
2016-05-17T11:58:29.137Z,11828
2016-05-17T11:59:29.422Z,12604
2016-05-17T12:00:30.675Z,13092
2016-05-17T12:01:29.395Z,12704
2016-05-17T12:02:29.523Z,11312
2016-05-17T12:03:29.432Z,10208
2016-05-17T12:04:43.109Z,9064
2016-05-17T12:05:28.359Z,8880
2016-05-17T12:07:29.646Z,8640
2016-05-17T12:08:44.761Z,7944
2016-05-17T12:09:42.873Z,7368
2016-05-17T12:10:29.123Z,7140
2016-05-17T12:11:43.753Z,6700
2016-05-17T12:12:28.331Z,6188
2016-05-17T12:13:30.490Z,5428
2016-05-17T12:14:29.806Z,5020
2016-05-17T12:15:29.558Z,4776
2016-05-17T12:16:28.998Z,5300
2016-05-17T12:17:30.236Z,6420
2016-05-17T12:18:29.941Z,7832
2016-05-17T12:20:29.369Z,11640
2016-05-17T12:21:29.184Z,12168
2016-05-17T12:22:29.249Z,12460
2016-05-17T12:23:29.174Z,14608
2016-05-17T12:24:29.847Z,18496
2016-05-17T12:25:29.991Z,21536
2016-05-17T12:26:29.416Z,22880
2016-05-17T12:28:29.421Z,17312
2016-05-17T12:29:43.880Z,13396
2016-05-17T12:31:43.698Z,11268
2016-05-17T12:32:57.419Z,12000
2016-05-17T12:33:44.000Z,11400
2016-05-17T12:34:43.940Z,9852
2016-05-17T12:35:43.740Z,8764
2016-05-17T12:36:29.959Z,8260
2016-05-17T12:37:30.336Z,8436
2016-05-17T12:38:29.167Z,9044
2016-05-17T12:39:43.345Z,9240
2016-05-17T12:40:44.003Z,8928
2016-05-17T12:41:29.534Z,8764
2016-05-17T12:42:43.368Z,9376
2016-05-17T12:43:29.587Z,10584
2016-05-17T12:44:43.795Z,12796
2016-05-17T12:45:29.373Z,14428
2016-05-17T12:46:29.736Z,16800
2016-05-17T12:47:29.754Z,18752
2016-05-17T12:48:29.600Z,20480
2016-05-17T12:49:43.824Z,22176
2016-05-17T12:50:29.605Z,22848
2016-05-17T12:51:29.436Z,23360
2016-05-17T12:52:44.019Z,23776
2016-05-17T12:53:30.004Z,23296
2016-05-17T12:54:29.632Z,22304
2016-05-17T12:55:29.447Z,21824
2016-05-17T12:56:30.028Z,21760
2016-05-17T12:57:29.656Z,21216
2016-05-17T12:58:29.486Z,20224
2016-05-17T12:59:29.473Z,18976
2016-05-17T13:00:30.460Z,18720
2016-05-17T13:01:29.744Z,19168
2016-05-17T13:02:43.719Z,18240
2016-05-17T13:03:29.735Z,17088
2016-05-17T13:04:29.721Z,16256
2016-05-17T13:05:30.115Z,15776
2016-05-17T13:06:29.977Z,16736
2016-05-17T13:08:29.513Z,21344
2016-05-17T13:10:29.800Z,23904
2016-05-17T13:11:29.724Z,26304
2016-05-17T13:12:29.524Z,28832
2016-05-17T13:13:29.558Z,27648
2016-05-17T13:14:44.017Z,22656
2016-05-17T13:15:29.782Z,20000
2016-05-17T13:17:30.038Z,13852
2016-05-17T13:18:43.636Z,10472
2016-05-17T13:19:29.574Z,7616
2016-05-17T13:20:29.420Z,5060
2016-05-17T13:21:29.611Z,3976
2016-05-17T13:22:29.973Z,4004
2016-05-17T13:23:29.647Z,5604
2016-05-17T13:24:29.650Z,7456
2016-05-17T13:25:29.496Z,7784
2016-05-17T13:26:44.111Z,9192
2016-05-17T13:27:29.658Z,10416
2016-05-17T13:28:29.911Z,12664
2016-05-17T13:29:30.085Z,17184
2016-05-17T13:30:30.307Z,20896
2016-05-17T13:31:29.699Z,23616
2016-05-17T13:33:29.971Z,26496
2016-05-17T13:34:29.896Z,26592
2016-05-17T13:35:44.026Z,26240
2016-05-17T13:36:30.354Z,25696
2016-05-17T13:37:44.032Z,25760
2016-05-17T13:39:44.646Z,25344
2016-05-17T13:40:29.756Z,24128
2016-05-17T13:41:43.683Z,21856
2016-05-17T13:42:29.777Z,19840
2016-05-17T13:43:44.048Z,16000
2016-05-17T13:44:29.642Z,14360
2016-05-17T13:45:29.785Z,13088
2016-05-17T13:46:29.631Z,13336
2016-05-17T13:47:29.400Z,12216
2016-05-17T13:48:30.449Z,9496
2016-05-17T13:49:30.015Z,9704
2016-05-17T13:51:29.817Z,9572
2016-05-17T13:52:30.053Z,9224
2016-05-17T13:53:29.837Z,9220
2016-05-17T13:54:29.887Z,9440
2016-05-17T13:55:30.062Z,9548
2016-05-17T13:56:29.392Z,9944
2016-05-17T13:57:30.755Z,9820
2016-05-17T13:58:29.897Z,9776
2016-05-17T13:59:44.200Z,9796
2016-05-17T14:00:30.294Z,9924
2016-05-17T14:01:44.455Z,11236
2016-05-17T14:02:29.924Z,12064
2016-05-17T14:03:30.114Z,13324
2016-05-17T14:04:30.133Z,14912
2016-05-17T14:05:30.151Z,16832
2016-05-17T14:06:29.872Z,17440
2016-05-17T14:07:30.657Z,17280
2016-05-17T14:08:30.362Z,17440
2016-05-17T14:09:30.365Z,17120
2016-05-17T14:10:29.993Z,16320
2016-05-17T14:11:29.854Z,15284
2016-05-17T14:15:30.318Z,11964
2016-05-17T14:16:30.039Z,10920
2016-05-17T14:17:30.129Z,10704
2016-05-17T14:18:30.360Z,11144
2016-05-17T14:19:30.529Z,11584
2016-05-17T14:20:30.229Z,12476
2016-05-17T14:21:29.816Z,14140
2016-05-17T14:22:30.771Z,15400
2016-05-17T14:23:30.336Z,15396
2016-05-17T14:24:31.714Z,15144
2016-05-17T14:25:30.762Z,16032
2016-05-17T14:26:30.804Z,17184
2016-05-17T14:27:30.359Z,17984
2016-05-17T14:28:30.805Z,18144
2016-05-17T14:29:30.625Z,17408
2016-05-17T14:30:30.821Z,16288
2016-05-17T14:31:30.498Z,15648
2016-05-17T14:33:43.793Z,15564
2016-05-17T14:34:30.855Z,14908
2016-05-17T14:35:30.501Z,14796
2016-05-17T14:36:30.927Z,14084
2016-05-17T14:37:30.819Z,13308
2016-05-17T14:38:30.714Z,12452
2016-05-17T14:39:30.717Z,11476
2016-05-17T14:41:31.114Z,9216
2016-05-17T14:42:31.226Z,8788
2016-05-17T14:43:30.620Z,7780
2016-05-17T14:44:30.795Z,6756
2016-05-17T14:45:30.797Z,7448
2016-05-17T14:46:30.722Z,9464
2016-05-17T14:47:30.194Z,10716
2016-05-17T14:48:30.994Z,12260
2016-05-17T14:50:30.874Z,16448
2016-05-17T14:51:44.536Z,17920
2016-05-17T14:52:30.052Z,17824
2016-05-17T14:53:30.679Z,17408
2016-05-17T14:54:31.806Z,17632
2016-05-17T14:55:45.374Z,17696
2016-05-17T14:57:30.909Z,16384